Toledo/Metcalf Field, Ohio
Current Conditions -  °F | °C
As of 9:53 AM on Monday 24 Nov 2014 (Local Time) from KTDZ Reporting Station
Light Rain Light Rain  
Wind Chill: 55°   Ceiling: 7000
Heat Index: 55°   Visibility: 7mi
Dew Point: 49°   Wind: 29mph
Humidity: 80%   Direction: 200°SSW
Pressure: 29.18"   Gusts: 43mph
Location:  41.56°N, 83.48°W
Report Text: KTDZ 241453Z AUTO 20025G37KT 7SM -RA OVC070 13/09 A2918 RMK AO2 PK WND 21037/1451 RAB02 SLP879 P0007 60007 T01280094 58001 TSNO
Loading
Personal Weather Stations






























Interactive Weather Map New forecast layout! Learn more

10-Day Weather Forecast

Advertisements
Track Severe Weather on mobile